createdAt,value
2022-10-25T00:01:51.862Z,12.57
2022-10-25T00:06:53.110Z,12.59
2022-10-25T00:09:21.160Z,12.60
2022-10-25T00:11:49.162Z,12.62
2022-10-25T00:14:19.422Z,12.65
2022-10-25T00:16:48.931Z,12.66
2022-10-25T00:19:19.256Z,12.63
2022-10-25T00:21:47.596Z,12.70
2022-10-25T00:24:16.205Z,12.71
2022-10-25T00:26:44.226Z,12.75
2022-10-25T00:29:12.926Z,12.70
2022-10-25T00:31:44.840Z,12.76
2022-10-25T00:34:14.282Z,12.77
2022-10-25T00:36:42.290Z,12.79
2022-10-25T00:39:10.882Z,12.81
2022-10-25T00:41:38.905Z,12.79
2022-10-25T00:44:44.247Z,12.79
2022-10-25T00:47:18.266Z,12.82
2022-10-25T00:49:50.687Z,12.80
2022-10-25T00:52:18.852Z,12.80
2022-10-25T00:54:51.714Z,12.80
2022-10-25T00:57:21.058Z,12.80
2022-10-25T00:59:50.408Z,12.79
2022-10-25T01:02:19.689Z,12.84
2022-10-25T01:04:50.211Z,12.87
2022-10-25T01:07:18.269Z,12.87
2022-10-25T01:09:46.719Z,12.88
2022-10-25T01:12:14.765Z,12.90
2022-10-25T01:14:46.510Z,12.91
2022-10-25T01:17:20.028Z,12.92
2022-10-25T01:20:11.291Z,12.94
2022-10-25T01:22:43.820Z,12.93
2022-10-25T01:25:23.030Z,12.96
2022-10-25T01:28:04.701Z,13.01
2022-10-25T01:31:00.297Z,13.01
2022-10-25T01:33:33.630Z,13.00
2022-10-25T01:36:08.299Z,12.99
2022-10-25T01:38:45.289Z,13.03
2022-10-25T01:41:23.094Z,13.05
2022-10-25T01:44:06.079Z,13.05
2022-10-25T01:46:45.415Z,13.05
2022-10-25T01:49:19.391Z,13.02
2022-10-25T01:51:47.571Z,13.04
2022-10-25T01:54:21.382Z,13.05
2022-10-25T01:57:01.879Z,13.06
2022-10-25T01:59:44.799Z,13.08
2022-10-25T02:02:24.754Z,13.08
2022-10-25T02:05:03.478Z,13.09
2022-10-25T02:07:37.792Z,13.08
2022-10-25T02:10:09.785Z,13.07
2022-10-25T02:12:52.794Z,13.08
2022-10-25T02:15:28.982Z,13.08
2022-10-25T02:18:00.991Z,13.08
2022-10-25T02:20:33.688Z,13.07
2022-10-25T02:23:06.037Z,13.09
2022-10-25T02:25:35.951Z,13.08
2022-10-25T02:28:09.167Z,13.10
2022-10-25T02:30:39.813Z,13.11
2022-10-25T02:33:09.608Z,13.11
2022-10-25T02:35:37.629Z,13.11
2022-10-25T02:38:06.008Z,13.09
2022-10-25T02:40:34.167Z,13.13
2022-10-25T02:43:02.596Z,13.14
2022-10-25T02:45:30.695Z,13.12
2022-10-25T02:47:58.712Z,13.10
2022-10-25T02:50:28.530Z,13.13
2022-10-25T02:52:56.608Z,13.15
2022-10-25T02:55:24.593Z,13.17
2022-10-25T02:57:52.663Z,13.16
2022-10-25T03:00:20.730Z,13.15
2022-10-25T03:02:48.995Z,13.18
2022-10-25T03:05:17.543Z,13.16
2022-10-25T03:07:47.376Z,13.15
2022-10-25T03:10:15.648Z,13.16
2022-10-25T03:12:43.818Z,13.14
2022-10-25T03:15:12.207Z,13.14
2022-10-25T03:17:40.244Z,13.17
2022-10-25T03:20:10.099Z,13.14
2022-10-25T03:22:38.410Z,13.11
2022-10-25T03:27:42.226Z,13.07
2022-10-25T03:30:10.746Z,13.08
2022-10-25T03:32:38.936Z,13.10
2022-10-25T03:35:08.487Z,13.14
2022-10-25T03:37:36.626Z,13.12
2022-10-25T03:40:05.260Z,13.11
2022-10-25T03:42:34.729Z,13.12
2022-10-25T03:45:03.066Z,13.08
2022-10-25T03:47:31.070Z,13.09
2022-10-25T03:49:59.151Z,13.09
2022-10-25T03:52:27.221Z,13.13
2022-10-25T03:54:55.792Z,13.15
2022-10-25T03:57:23.845Z,13.11
2022-10-25T03:59:53.319Z,13.13
2022-10-25T04:02:21.557Z,13.11
2022-10-25T04:04:49.645Z,13.11
2022-10-25T04:07:17.964Z,13.13
2022-10-25T04:09:46.323Z,13.14
2022-10-25T04:12:15.021Z,13.13
2022-10-25T04:14:43.190Z,13.16
2022-10-25T04:17:12.534Z,13.16
2022-10-25T04:19:40.566Z,13.19
2022-10-25T04:22:08.555Z,13.21
2022-10-25T04:24:36.608Z,13.18
2022-10-25T04:27:04.882Z,13.19
2022-10-25T04:29:33.017Z,13.19
2022-10-25T04:32:01.007Z,13.16
2022-10-25T04:34:30.503Z,13.14
2022-10-25T04:36:58.558Z,13.15
2022-10-25T04:39:27.023Z,13.16
2022-10-25T04:41:55.343Z,13.18
2022-10-25T04:44:23.444Z,13.15
2022-10-25T04:46:51.843Z,13.09
2022-10-25T04:49:20.143Z,13.13
2022-10-25T04:54:23.108Z,13.14
2022-10-25T04:56:51.049Z,13.12
2022-10-25T04:59:19.107Z,13.10
2022-10-25T05:01:47.229Z,13.06
2022-10-25T05:04:15.421Z,13.08
2022-10-25T05:06:43.414Z,13.04
2022-10-25T05:09:12.868Z,13.07
2022-10-25T05:11:43.008Z,13.03
2022-10-25T05:14:11.100Z,13.04
2022-10-25T05:16:39.468Z,13.01
2022-10-25T05:19:07.613Z,13.00
2022-10-25T05:21:35.602Z,12.99
2022-10-25T05:24:03.681Z,13.01
2022-10-25T05:26:35.493Z,13.05
2022-10-25T05:29:09.962Z,13.03
2022-10-25T05:31:40.732Z,12.98
2022-10-25T05:34:10.794Z,13.02
2022-10-25T05:36:39.206Z,13.01
2022-10-25T05:39:07.399Z,13.01
2022-10-25T05:41:37.299Z,13.00
2022-10-25T05:44:06.277Z,12.99
2022-10-25T05:46:34.273Z,13.04
2022-10-25T05:49:02.744Z,12.99
2022-10-25T05:51:35.367Z,13.04
2022-10-25T05:54:06.926Z,12.99
2022-10-25T05:56:37.545Z,13.01
2022-10-25T05:59:08.954Z,12.93
2022-10-25T06:01:38.099Z,12.98
2022-10-25T06:04:07.060Z,13.02
2022-10-25T06:06:35.274Z,12.97
2022-10-25T06:09:04.511Z,12.98
2022-10-25T06:11:33.353Z,12.98
2022-10-25T06:14:02.902Z,12.97
2022-10-25T06:16:33.689Z,12.90
2022-10-25T06:19:04.004Z,12.91
2022-10-25T06:21:32.095Z,12.92
2022-10-25T06:24:01.023Z,12.90
2022-10-25T06:26:31.594Z,12.92
2022-10-25T06:29:03.229Z,12.89
2022-10-25T06:31:33.326Z,12.90
2022-10-25T06:34:01.782Z,12.81
2022-10-25T06:36:31.176Z,12.85
2022-10-25T06:39:05.307Z,12.84
2022-10-25T06:41:36.983Z,12.85
2022-10-25T06:44:07.883Z,12.87
2022-10-25T06:47:11.787Z,12.88
2022-10-25T06:49:26.472Z,12.90
2022-10-25T06:51:54.781Z,12.92
2022-10-25T06:54:23.010Z,12.94
2022-10-25T06:56:51.175Z,12.93
2022-10-25T06:59:21.199Z,12.92
2022-10-25T07:01:50.155Z,12.95
2022-10-25T07:04:18.519Z,12.94
2022-10-25T07:06:50.102Z,12.95
2022-10-25T07:09:21.241Z,12.92
2022-10-25T07:11:49.269Z,12.97
2022-10-25T07:14:21.761Z,12.93
2022-10-25T07:16:49.869Z,12.94
2022-10-25T07:19:18.250Z,12.99
2022-10-25T07:21:46.633Z,12.99
2022-10-25T07:24:14.809Z,13.00
2022-10-25T07:26:42.922Z,13.03
2022-10-25T07:29:11.354Z,13.12
2022-10-25T07:31:43.258Z,13.19
2022-10-25T07:34:14.474Z,13.23
2022-10-25T07:36:42.911Z,13.35
2022-10-25T07:39:11.022Z,13.30
2022-10-25T07:41:39.085Z,13.34
2022-10-25T07:44:11.695Z,13.43
2022-10-25T07:46:44.456Z,13.52
2022-10-25T07:49:12.812Z,13.70
2022-10-25T07:51:43.190Z,13.72
2022-10-25T07:54:11.332Z,13.73
2022-10-25T07:56:39.652Z,13.76
2022-10-25T07:59:10.038Z,13.77
2022-10-25T08:01:38.267Z,13.77
2022-10-25T08:04:10.268Z,13.89
2022-10-25T08:07:00.486Z,13.83
2022-10-25T08:09:49.111Z,13.81
2022-10-25T08:12:37.453Z,13.77
2022-10-25T08:15:25.481Z,13.81
2022-10-25T08:18:13.553Z,13.77
2022-10-25T08:21:04.479Z,13.80
2022-10-25T08:23:52.857Z,13.84
2022-10-25T08:26:43.274Z,13.77
2022-10-25T08:29:31.354Z,13.84
2022-10-25T08:32:19.488Z,13.85
2022-10-25T08:35:07.853Z,13.84
2022-10-25T08:37:57.239Z,13.85
2022-10-25T08:40:55.530Z,13.84
2022-10-25T08:43:33.713Z,13.86
2022-10-25T08:46:29.417Z,13.88
2022-10-25T08:49:25.622Z,13.94
2022-10-25T08:52:01.310Z,13.96
2022-10-25T08:54:51.995Z,13.93
2022-10-25T08:57:33.184Z,14.02
2022-10-25T09:00:23.123Z,14.10
2022-10-25T09:03:16.499Z,14.13
2022-10-25T09:06:05.446Z,14.16
2022-10-25T09:09:08.222Z,14.22
2022-10-25T09:12:09.559Z,14.22
2022-10-25T09:15:06.546Z,14.27
2022-10-25T09:17:45.217Z,14.27
2022-10-25T09:20:25.902Z,14.30
2022-10-25T09:23:25.118Z,14.34
2022-10-25T09:26:22.188Z,14.36
2022-10-25T09:29:25.908Z,14.45
2022-10-25T09:32:20.312Z,14.48
2022-10-25T09:35:18.753Z,14.48
2022-10-25T09:38:13.184Z,14.52
2022-10-25T09:40:56.848Z,14.62
2022-10-25T09:43:50.305Z,14.72
2022-10-25T09:46:44.810Z,14.69
2022-10-25T09:49:39.530Z,14.74
2022-10-25T09:52:32.967Z,14.79
2022-10-25T09:55:33.692Z,14.85
2022-10-25T09:58:02.718Z,14.99
2022-10-25T10:00:52.447Z,15.19
2022-10-25T10:03:22.656Z,15.39
2022-10-25T10:06:22.234Z,15.69
2022-10-25T10:08:54.332Z,15.52
2022-10-25T10:11:25.980Z,15.75
2022-10-25T10:14:07.511Z,15.69
2022-10-25T10:16:58.835Z,15.66
2022-10-25T10:20:10.862Z,15.67
2022-10-25T10:22:45.532Z,15.90
2022-10-25T10:25:29.854Z,16.15
2022-10-25T10:27:58.769Z,16.27
2022-10-25T10:30:57.144Z,16.44
2022-10-25T10:33:40.206Z,16.51
2022-10-25T10:36:31.369Z,16.62
2022-10-25T10:39:22.816Z,16.77
2022-10-25T10:42:03.154Z,16.88
2022-10-25T10:44:34.832Z,17.19
2022-10-25T10:47:11.235Z,17.39
2022-10-25T10:49:41.468Z,17.58
2022-10-25T10:52:31.597Z,17.43
2022-10-25T10:55:01.187Z,17.84
2022-10-25T10:57:33.442Z,17.90
2022-10-25T11:00:02.612Z,17.61
2022-10-25T11:02:40.679Z,17.52
2022-10-25T11:05:26.278Z,17.51
2022-10-25T11:08:00.729Z,17.40
2022-10-25T11:10:33.791Z,17.46
2022-10-25T11:13:16.325Z,17.48
2022-10-25T11:16:16.028Z,17.47
2022-10-25T11:18:55.366Z,17.68
2022-10-25T11:21:36.277Z,17.57
2022-10-25T11:24:14.403Z,17.30
2022-10-25T11:26:54.798Z,17.45
2022-10-25T11:29:44.549Z,17.44
2022-10-25T11:35:26.186Z,17.31
2022-10-25T11:38:00.710Z,17.48
2022-10-25T11:40:33.921Z,17.53
2022-10-25T11:43:21.286Z,17.78
2022-10-25T11:45:58.054Z,17.57
2022-10-25T11:48:46.621Z,17.52
2022-10-25T11:51:26.318Z,17.80
2022-10-25T11:54:08.354Z,17.94
2022-10-25T11:56:49.860Z,18.07
2022-10-25T11:59:25.332Z,18.07
2022-10-25T12:02:06.160Z,18.07
2022-10-25T12:04:47.361Z,18.31
2022-10-25T12:07:23.031Z,18.35
2022-10-25T12:10:04.359Z,18.37
2022-10-25T12:12:44.641Z,18.27
2022-10-25T12:15:18.979Z,18.35
2022-10-25T12:17:47.768Z,18.34
2022-10-25T12:20:23.750Z,18.40
2022-10-25T12:22:55.651Z,18.72
2022-10-25T12:25:29.959Z,18.95
2022-10-25T12:28:06.867Z,19.15
2022-10-25T12:30:37.879Z,19.12
2022-10-25T12:33:16.904Z,18.61
2022-10-25T12:35:51.318Z,18.64
2022-10-25T12:38:27.592Z,18.89
2022-10-25T12:41:01.543Z,19.09
2022-10-25T12:43:37.540Z,19.70
2022-10-25T12:46:28.912Z,20.19
2022-10-25T12:49:24.288Z,20.41
2022-10-25T12:52:23.858Z,20.69
2022-10-25T12:55:11.791Z,20.82
2022-10-25T12:57:54.052Z,20.68
2022-10-25T13:00:25.132Z,21.06
2022-10-25T13:03:21.789Z,21.07
2022-10-25T13:06:14.558Z,20.95
2022-10-25T13:08:43.814Z,20.73
2022-10-25T13:11:12.531Z,20.20
2022-10-25T13:13:47.706Z,19.93
2022-10-25T13:16:28.280Z,19.72
2022-10-25T13:19:30.676Z,19.75
2022-10-25T13:22:34.178Z,19.30
2022-10-25T13:25:17.442Z,19.35
2022-10-25T13:28:18.621Z,19.11
2022-10-25T13:30:46.746Z,19.28
2022-10-25T13:33:33.498Z,19.24
2022-10-25T13:36:06.094Z,19.30
2022-10-25T13:38:39.666Z,19.11
2022-10-25T13:41:20.085Z,18.88
2022-10-25T13:44:02.660Z,19.00
2022-10-25T13:46:34.846Z,18.85
2022-10-25T13:49:36.757Z,18.83
2022-10-25T13:52:11.333Z,18.93
2022-10-25T13:54:49.585Z,18.86
2022-10-25T13:57:53.366Z,18.64
2022-10-25T14:00:34.651Z,18.85
2022-10-25T14:03:28.843Z,18.67
2022-10-25T14:06:25.030Z,18.67
2022-10-25T14:09:00.458Z,18.59
2022-10-25T14:11:37.411Z,18.38
2022-10-25T14:14:17.374Z,18.13
2022-10-25T14:16:56.714Z,18.18
2022-10-25T14:19:36.603Z,18.13
2022-10-25T14:22:16.694Z,18.14
2022-10-25T14:24:52.635Z,18.06
2022-10-25T14:27:33.800Z,17.86
2022-10-25T14:30:24.242Z,17.90
2022-10-25T14:32:55.420Z,17.57
2022-10-25T14:35:25.357Z,17.66
2022-10-25T14:37:58.150Z,17.65
2022-10-25T14:40:29.121Z,17.67
2022-10-25T14:43:12.720Z,17.66
2022-10-25T14:45:41.156Z,17.61
2022-10-25T14:48:12.321Z,17.60
2022-10-25T14:50:40.388Z,17.58
2022-10-25T14:53:16.586Z,17.64
2022-10-25T14:55:52.858Z,17.58
2022-10-25T14:58:21.819Z,17.66
2022-10-25T15:00:55.430Z,17.59
2022-10-25T15:03:24.267Z,17.59
2022-10-25T15:05:53.457Z,17.49
2022-10-25T15:08:28.762Z,17.35
2022-10-25T15:11:00.134Z,17.28
2022-10-25T15:13:32.949Z,17.15
2022-10-25T15:16:03.609Z,17.03
2022-10-25T15:18:35.523Z,17.13
2022-10-25T15:21:10.232Z,17.00
2022-10-25T15:23:41.153Z,16.99
2022-10-25T15:26:26.157Z,16.92
2022-10-25T15:28:55.756Z,16.89
2022-10-25T15:31:29.192Z,16.92
2022-10-25T15:34:01.872Z,16.91
2022-10-25T15:36:31.573Z,16.80
2022-10-25T15:39:11.433Z,16.75
2022-10-25T15:41:40.866Z,16.76
2022-10-25T15:44:09.205Z,16.70
2022-10-25T15:46:38.137Z,16.60
2022-10-25T15:49:08.405Z,16.46
2022-10-25T15:51:40.886Z,16.44
2022-10-25T15:54:16.381Z,16.41
2022-10-25T15:56:45.074Z,16.33
2022-10-25T15:59:14.429Z,16.34
2022-10-25T16:01:45.638Z,16.20
2022-10-25T16:04:18.199Z,16.15
2022-10-25T16:06:47.507Z,16.08
2022-10-25T16:09:16.892Z,16.04
2022-10-25T16:11:49.694Z,15.77
2022-10-25T16:14:21.863Z,15.76
2022-10-25T16:16:50.036Z,15.72
2022-10-25T16:19:21.548Z,15.63
2022-10-25T16:21:50.091Z,15.44
2022-10-25T16:24:19.691Z,15.44
2022-10-25T16:26:53.695Z,15.37
2022-10-25T16:29:24.313Z,15.33
2022-10-25T16:31:53.977Z,15.19
2022-10-25T16:34:22.322Z,15.09
2022-10-25T16:36:52.516Z,15.04
2022-10-25T16:39:22.142Z,14.91
2022-10-25T16:41:52.583Z,14.80
2022-10-25T16:44:22.700Z,14.76
2022-10-25T16:46:50.960Z,14.77
2022-10-25T16:49:18.974Z,14.57
2022-10-25T16:51:51.208Z,14.50
2022-10-25T16:54:23.865Z,14.45
2022-10-25T16:56:53.679Z,14.47
2022-10-25T16:59:23.976Z,14.39
2022-10-25T17:01:55.683Z,14.32
2022-10-25T17:04:26.564Z,14.19
2022-10-25T17:06:54.922Z,14.10
2022-10-25T17:09:23.487Z,14.03
2022-10-25T17:11:54.949Z,14.01
2022-10-25T17:14:22.988Z,13.94
2022-10-25T17:16:51.003Z,13.90
2022-10-25T17:19:19.073Z,13.84
2022-10-25T17:21:47.150Z,13.74
2022-10-25T17:24:16.323Z,13.74
2022-10-25T17:26:45.042Z,13.75
2022-10-25T17:29:14.504Z,13.69
2022-10-25T17:31:42.845Z,13.65
2022-10-25T17:34:13.432Z,13.64
2022-10-25T17:36:41.609Z,13.50
2022-10-25T17:39:11.232Z,13.45
2022-10-25T17:41:43.499Z,13.40
2022-10-25T17:44:14.634Z,13.38
2022-10-25T17:49:19.325Z,13.29
2022-10-25T17:51:48.301Z,13.21
2022-10-25T17:54:16.986Z,13.22
2022-10-25T17:56:45.025Z,13.12
2022-10-25T17:59:13.036Z,13.00
2022-10-25T18:01:41.305Z,13.04
2022-10-25T18:04:13.180Z,12.95
2022-10-25T18:06:41.365Z,12.94
2022-10-25T18:09:10.582Z,12.92
2022-10-25T18:11:39.124Z,12.87
2022-10-25T18:14:07.297Z,12.77
2022-10-25T18:16:35.403Z,12.72
2022-10-25T18:19:05.667Z,12.63
2022-10-25T18:21:35.550Z,12.61
2022-10-25T18:24:08.555Z,12.64
2022-10-25T18:26:36.813Z,12.57
2022-10-25T18:29:07.231Z,12.57
2022-10-25T18:31:35.257Z,12.47
2022-10-25T18:34:04.839Z,12.40
2022-10-25T18:36:33.130Z,12.39
2022-10-25T18:39:05.714Z,12.43
2022-10-25T18:41:35.508Z,12.42
2022-10-25T18:44:06.045Z,12.37
2022-10-25T18:46:36.694Z,12.31
2022-10-25T18:49:04.809Z,12.27
2022-10-25T18:51:32.961Z,12.20
2022-10-25T18:54:03.950Z,12.16
2022-10-25T18:56:32.150Z,12.16
2022-10-25T18:59:02.586Z,12.18
2022-10-25T19:01:32.976Z,12.13
2022-10-25T19:04:03.606Z,12.06
2022-10-25T19:06:34.338Z,12.04
2022-10-25T19:09:04.743Z,11.94
2022-10-25T19:11:34.633Z,11.99
2022-10-25T19:14:04.045Z,11.84
2022-10-25T19:16:32.283Z,11.83
2022-10-25T19:19:04.260Z,11.75
2022-10-25T19:21:34.971Z,11.77
2022-10-25T19:24:04.851Z,11.72
2022-10-25T19:26:32.882Z,11.71
2022-10-25T19:29:02.181Z,11.61
2022-10-25T19:31:30.637Z,11.60
2022-10-25T19:34:00.602Z,11.58
2022-10-25T19:36:28.839Z,11.54
2022-10-25T19:38:57.006Z,11.48
2022-10-25T19:41:26.817Z,11.41
2022-10-25T19:43:58.174Z,11.36
2022-10-25T19:46:26.326Z,11.38
2022-10-25T19:48:56.218Z,11.25
2022-10-25T19:51:24.289Z,11.21
2022-10-25T19:53:52.421Z,11.20
2022-10-25T19:56:24.242Z,11.21
2022-10-25T19:58:53.833Z,11.15
2022-10-25T20:01:24.285Z,11.15
2022-10-25T20:03:54.657Z,11.18
2022-10-25T20:06:25.126Z,11.10
2022-10-25T20:08:53.868Z,11.04
2022-10-25T20:11:23.350Z,10.96
2022-10-25T20:13:55.442Z,10.93
2022-10-25T20:16:23.948Z,10.87
2022-10-25T20:18:52.055Z,10.80
2022-10-25T20:21:22.698Z,10.77
2022-10-25T20:23:55.383Z,10.77
2022-10-25T20:26:25.984Z,10.69
2022-10-25T20:28:56.895Z,10.72
2022-10-25T20:31:26.025Z,10.67
2022-10-25T20:33:54.891Z,10.63
2022-10-25T20:36:23.205Z,10.59
2022-10-25T20:38:51.515Z,10.63
2022-10-25T20:41:21.595Z,10.60
2022-10-25T20:43:51.932Z,10.54
2022-10-25T20:46:24.688Z,10.56
2022-10-25T20:48:52.657Z,10.45
2022-10-25T20:51:20.978Z,10.43
2022-10-25T20:53:49.773Z,10.40
2022-10-25T20:56:18.972Z,10.31
2022-10-25T20:58:47.322Z,10.33
2022-10-25T21:01:15.387Z,10.30
2022-10-25T21:03:44.977Z,10.25
2022-10-25T21:06:14.534Z,10.23
2022-10-25T21:08:42.862Z,10.24
2022-10-25T21:11:13.386Z,10.21
2022-10-25T21:13:41.991Z,10.17
2022-10-25T21:16:12.007Z,10.08
2022-10-25T21:18:40.780Z,10.06
2022-10-25T21:21:14.286Z,9.97
2022-10-25T21:23:42.677Z,10.00
2022-10-25T21:26:11.077Z,10.03
2022-10-25T21:28:40.947Z,9.92
2022-10-25T21:31:11.475Z,9.95
2022-10-25T21:33:41.740Z,9.91
2022-10-25T21:36:14.638Z,9.92
2022-10-25T21:38:43.057Z,9.86
2022-10-25T21:41:12.909Z,9.91
2022-10-25T21:43:44.490Z,9.91
2022-10-25T21:46:13.334Z,9.84
2022-10-25T21:48:42.034Z,9.90
2022-10-25T21:51:14.815Z,9.78
2022-10-25T21:53:43.011Z,9.69
2022-10-25T21:56:13.374Z,9.67
2022-10-25T21:58:43.335Z,9.71
2022-10-25T22:01:13.350Z,9.60
2022-10-25T22:03:41.957Z,9.61
2022-10-25T22:06:11.283Z,9.59
2022-10-25T22:08:41.244Z,9.54
2022-10-25T22:11:13.124Z,9.48
2022-10-25T22:13:41.554Z,9.46
2022-10-25T22:16:12.402Z,9.48
2022-10-25T22:18:40.690Z,9.51
2022-10-25T22:21:10.544Z,9.46
2022-10-25T22:23:40.916Z,9.37
2022-10-25T22:26:11.943Z,9.41
2022-10-25T22:28:41.393Z,9.30
2022-10-25T22:31:12.155Z,9.34
2022-10-25T22:33:40.896Z,9.25
2022-10-25T22:36:10.854Z,9.26
2022-10-25T22:38:40.505Z,9.27
2022-10-25T22:41:11.051Z,9.17
2022-10-25T22:43:40.197Z,9.14
2022-10-25T22:46:10.082Z,9.10
2022-10-25T22:48:42.595Z,9.15
2022-10-25T22:51:11.893Z,9.15
2022-10-25T22:53:42.384Z,9.17
2022-10-25T22:56:12.817Z,9.16
2022-10-25T22:58:42.364Z,9.21
2022-10-25T23:01:12.549Z,9.16
2022-10-25T23:03:42.699Z,9.23
2022-10-25T23:06:13.054Z,9.18
2022-10-25T23:08:42.763Z,9.18
2022-10-25T23:11:13.876Z,9.17
2022-10-25T23:13:42.089Z,9.22
2022-10-25T23:16:11.445Z,9.20
2022-10-25T23:18:40.046Z,9.21
2022-10-25T23:21:10.034Z,9.18
2022-10-25T23:23:39.750Z,9.16
2022-10-25T23:26:13.963Z,9.11
2022-10-25T23:28:42.038Z,9.08
2022-10-25T23:31:12.279Z,9.14
2022-10-25T23:33:41.747Z,9.13
2022-10-25T23:36:15.637Z,9.14
2022-10-25T23:38:43.899Z,9.11
2022-10-25T23:41:13.735Z,9.11
2022-10-25T23:43:42.070Z,9.11
2022-10-25T23:46:11.119Z,9.12
2022-10-25T23:48:39.684Z,9.16
2022-10-25T23:51:12.542Z,9.14
2022-10-25T23:53:41.379Z,9.14
2022-10-25T23:56:10.933Z,9.13
2022-10-25T23:58:41.416Z,9.12
